< < Back
Terminal Aerodrome Forecast


Current Version              Previous Versions:   1  2  3  4  5  6  7  8  9  

Terminal Aerodrome Forecast

060
FTUS42 KFFC 240500
TAFCSG
TAF
KCSG 240525Z 2406/2506 00000KT P6SM SCT250
     FM241600 33004KT P6SM FEW200=



Latest METAR

792
SAUS70 KWBC 241400
MTRCSG
METAR KCSG 241351Z 00000KT 10SM CLR 13/08 A3008 RMK AO2 SLP183
T01330078


USA.gov is the U.S. government's official web portal to all federal, state and local government web resources and services.